CZUM/ZUM METAR and TAF weather

Enter ICAO airport designator
Station Type Date Time Source
CZUM METAR 2024/06/14 02:00 UTC NOAA

CZUM 140200Z AUTO 00000KT 9SM SCT081 SCT110 14/11 A2960 RMK SLP033 DENSITY ALT 2000FT


Station Type Date Time Source
CZUM Decoded METAR 2024/06/14 02:00 UTC NOAA

Churchill Falls, Nfld., Canada (CZUM) 53-33N 064-06W 440M
Jun 13, 2024 - 10:00 PM EDT / 2024.06.14 0200 UTC
Wind: Calm:0
Visibility: 9 mile(s):0
Sky conditions: partly cloudy
Temperature: 57 F (14 C)
Dew Point: 51 F (11 C)
Relative Humidity: 82%
Pressure (altimeter): 29.6 in. Hg (1002 hPa)
ob: CZUM 140200Z AUTO 00000KT 9SM SCT081 SCT110 14/11 A2960 RMK SLP033 DENSITY ALT 2000FT
cycle: 2

Station Type Date Time Source
CZUM TAF 2024/06/14 02:42 UTC NOAA